Time;durP1;ratioP1;P1;durP2;ratioP2;P2;SDS_P1;SDS_P2;PMS_P1;PMS_P2;Temp;Humidity;BMP_temperature;BMP_pressure;BME280_temperature;BME280_humidity;BME280_pressure;Samples;Min_cycle;Max_cycle;Signal;HPM_P1;HPM_P2
2022/07/30 00:01:33;;;;;;;5.68;3.13;;;;;;;17.90;77.27;101453.28;5049558;28;20025;-73
2022/07/30 00:03:58;;;;;;;6.15;3.00;;;;;;;17.87;77.33;101455.47;5051169;28;20032;-74
2022/07/30 00:06:24;;;;;;;7.75;3.50;;;;;;;17.80;77.64;101449.31;5070645;28;20440;-73
2022/07/30 00:08:49;;;;;;;5.63;2.88;;;;;;;17.77;77.73;101450.50;5036577;28;20020;-73
2022/07/30 00:11:15;;;;;;;5.43;3.15;;;;;;;17.73;77.51;101449.25;5071251;28;20043;-73
2022/07/30 00:13:40;;;;;;;4.70;3.05;;;;;;;17.66;78.03;101454.44;5072371;28;20465;-73
2022/07/30 00:16:06;;;;;;;5.25;2.95;;;;;;;17.63;78.28;101454.00;5051409;28;20044;-73
2022/07/30 00:18:32;;;;;;;7.53;3.10;;;;;;;17.59;78.15;101450.94;5067591;28;20036;-73
2022/07/30 00:20:57;;;;;;;6.53;2.90;;;;;;;17.59;78.26;101455.38;5068540;28;20032;-73
2022/07/30 00:23:23;;;;;;;6.05;3.28;;;;;;;17.55;78.30;101452.31;5072703;28;20470;-73
2022/07/30 00:25:48;;;;;;;5.50;3.60;;;;;;;17.52;78.29;101445.63;5068982;28;20032;-73
2022/07/30 00:28:14;;;;;;;6.57;3.50;;;;;;;17.51;78.28;101441.38;5070081;28;20085;-73
2022/07/30 00:30:39;;;;;;;9.65;3.25;;;;;;;17.49;78.25;101445.19;5062666;28;20036;-73
2022/07/30 00:33:05;;;;;;;6.15;3.33;;;;;;;17.46;78.65;101440.31;5069485;28;20040;-73
2022/07/30 00:35:30;;;;;;;8.38;4.35;;;;;;;17.40;78.81;101446.28;5066500;28;20044;-73
2022/07/30 00:37:56;;;;;;;6.22;3.85;;;;;;;17.28;79.22;101452.03;5066717;28;20025;-73
2022/07/30 00:40:22;;;;;;;6.13;3.30;;;;;;;17.25;79.73;101448.97;5047605;28;20032;-73
2022/07/30 00:42:48;;;;;;;6.40;3.97;;;;;;;17.23;79.60;101454.38;5052155;28;20025;-73
2022/07/30 00:45:15;;;;;;;6.40;4.20;;;;;;;17.24;79.67;101450.78;5049608;28;20032;-73
2022/07/30 00:47:40;;;;;;;10.30;4.25;;;;;;;17.20;79.42;101464.44;5066635;28;20035;-73
2022/07/30 00:50:09;;;;;;;10.60;4.93;;;;;;;17.11;79.48;101456.66;5050524;28;20175;-73
2022/07/30 00:52:37;;;;;;;9.82;5.10;;;;;;;17.10;79.40;101462.06;5067945;28;20115;-73
2022/07/30 00:55:04;;;;;;;10.23;5.30;;;;;;;17.10;79.43;101464.69;5052643;28;20508;-73
2022/07/30 00:57:29;;;;;;;7.88;5.40;;;;;;;17.05;79.40;101456.59;5067423;28;20114;-73
2022/07/30 00:59:55;;;;;;;15.20;6.40;;;;;;;17.05;79.52;101456.59;5069749;28;20662;-72
2022/07/30 01:02:21;;;;;;;12.73;6.65;;;;;;;16.98;78.83;101464.34;5048760;28;20051;-73
2022/07/30 01:04:47;;;;;;;12.80;7.43;;;;;;;16.87;79.22;101465.63;5049257;28;20036;-73
2022/07/30 01:07:12;;;;;;;11.68;7.32;;;;;;;16.88;78.92;101459.41;5067753;28;20056;-73
2022/07/30 01:09:38;;;;;;;10.38;6.03;;;;;;;16.85;79.31;101461.56;5049416;28;20033;-73
2022/07/30 01:12:06;;;;;;;14.15;6.25;;;;;;;16.81;79.38;101466.31;5049218;28;20032;-72
2022/07/30 01:14:33;;;;;;;11.95;6.38;;;;;;;16.83;79.32;101468.78;5028547;28;20072;-72
2022/07/30 01:16:59;;;;;;;16.83;6.90;;;;;;;16.82;79.38;101467.13;5062873;28;20512;-72
2022/07/30 01:19:50;;;;;;;12.68;6.35;;;;;;;16.77;79.39;101461.66;5049195;28;20119;-72
2022/07/30 01:22:25;;;;;;;13.32;6.18;;;;;;;16.72;79.49;101456.94;5032583;28;20762;-72
2022/07/30 01:25:02;;;;;;;13.57;7.80;;;;;;;16.71;79.28;101460.56;5046455;28;20032;-72
2022/07/30 01:27:44;;;;;;;14.80;7.10;;;;;;;16.67;79.30;101465.34;5044577;28;20024;-73
2022/07/30 01:30:13;;;;;;;8.20;6.65;;;;;;;16.63;79.72;101458.00;5044188;28;20043;-73
2022/07/30 01:32:42;;;;;;;10.52;6.22;;;;;;;16.62;79.88;101464.25;5062480;28;20111;-72
2022/07/30 01:35:10;;;;;;;12.63;6.55;;;;;;;16.61;80.09;101463.41;5047572;28;20476;-72
2022/07/30 01:37:37;;;;;;;14.32;6.47;;;;;;;16.61;80.03;101460.81;5045650;28;20029;-72
2022/07/30 01:40:04;;;;;;;14.00;5.65;;;;;;;16.63;79.92;101455.38;5047058;28;20055;-72
2022/07/30 01:42:31;;;;;;;19.30;8.23;;;;;;;16.60;79.58;101461.00;5060525;28;20024;-72
2022/07/30 01:44:58;;;;;;;8.70;5.85;;;;;;;16.51;79.96;101461.06;5065393;28;20101;-73
2022/07/30 01:47:24;;;;;;;9.13;5.60;;;;;;;16.50;79.92;101454.22;5031983;28;20089;-72
2022/07/30 01:49:52;;;;;;;11.65;6.30;;;;;;;16.49;80.11;101462.25;5046181;28;20038;-72
2022/07/30 01:52:19;;;;;;;9.82;6.05;;;;;;;16.44;80.39;101462.75;5050310;28;20080;-72
2022/07/30 01:54:48;;;;;;;8.20;5.60;;;;;;;16.41;80.58;101460.53;5044867;28;20120;-72
2022/07/30 01:57:17;;;;;;;6.80;5.35;;;;;;;16.43;80.47;101466.38;5046311;28;20040;-72
2022/07/30 01:59:48;;;;;;;12.95;6.82;;;;;;;16.44;80.32;101469.81;5048440;28;20032;-72
2022/07/30 02:02:13;;;;;;;9.10;5.60;;;;;;;16.46;80.22;101467.81;5043075;28;20416;-72
2022/07/30 02:04:39;;;;;;;19.85;6.53;;;;;;;16.37;80.72;101468.91;5050543;28;20107;-73
2022/07/30 02:07:21;;;;;;;13.80;7.18;;;;;;;16.36;80.84;101468.09;5045895;28;20044;-72
2022/07/30 02:10:10;;;;;;;9.75;6.07;;;;;;;16.33;80.93;101468.44;5047731;28;20405;-73
2022/07/30 02:12:51;;;;;;;11.80;6.47;;;;;;;16.29;81.27;101467.16;5026979;28;20143;-72
2022/07/30 02:15:33;;;;;;;9.68;5.22;;;;;;;16.30;81.34;101471.44;5046528;28;20024;-72
2022/07/30 02:18:20;;;;;;;9.27;5.57;;;;;;;16.30;81.20;101468.81;5062813;28;20493;-72
2022/07/30 02:20:53;;;;;;;8.88;5.95;;;;;;;16.32;81.13;101467.63;5042443;28;20032;-72
2022/07/30 02:23:20;;;;;;;8.93;5.07;;;;;;;16.33;80.98;101466.66;5044889;28;20040;-72
2022/07/30 02:25:50;;;;;;;11.65;6.28;;;;;;;16.35;80.91;101477.75;5043522;28;20574;-72
2022/07/30 02:28:21;;;;;;;9.63;5.60;;;;;;;16.36;80.83;101468.09;5038122;28;20075;-72
2022/07/30 02:30:53;;;;;;;9.32;6.05;;;;;;;16.37;80.76;101474.13;5044543;28;20064;-72
2022/07/30 02:33:22;;;;;;;8.05;5.38;;;;;;;16.33;80.65;101469.28;5042378;28;20035;-72
2022/07/30 02:35:51;;;;;;;10.20;6.07;;;;;;;16.31;80.97;101475.66;5040412;28;20485;-72
2022/07/30 02:38:19;;;;;;;7.80;5.85;;;;;;;16.27;80.98;101483.03;5040981;28;20045;-72
2022/07/30 02:40:45;;;;;;;8.55;5.97;;;;;;;16.23;81.46;101480.97;5060959;28;21732;-72
2022/07/30 02:43:14;;;;;;;10.50;6.65;;;;;;;16.19;81.61;101480.50;5044630;28;20421;-72
2022/07/30 02:45:41;;;;;;;11.02;6.18;;;;;;;16.17;81.75;101479.06;5061486;28;20119;-72
2022/07/30 02:48:09;;;;;;;12.82;5.82;;;;;;;16.18;81.70;101483.28;5060174;28;20043;-72
2022/07/30 02:50:38;;;;;;;11.98;5.55;;;;;;;16.19;81.56;101480.50;5043857;28;20031;-72
2022/07/30 02:53:09;;;;;;;11.55;6.07;;;;;;;16.19;81.71;101477.09;5046183;28;20050;-72
2022/07/30 02:55:37;;;;;;;12.90;5.80;;;;;;;16.19;81.72;101474.47;5062812;28;20024;-72
2022/07/30 02:58:05;;;;;;;10.40;5.97;;;;;;;16.15;81.75;101479.22;5044874;28;20039;-73
2022/07/30 03:00:33;;;;;;;14.00;6.70;;;;;;;16.09;82.23;101488.59;5040771;28;20029;-72
2022/07/30 03:03:00;;;;;;;13.10;6.18;;;;;;;16.07;82.56;101485.34;5043801;28;20025;-72
2022/07/30 03:05:26;;;;;;;13.55;7.15;;;;;;;16.06;82.63;101480.28;5047318;28;20075;-72
2022/07/30 03:07:55;;;;;;;9.93;6.50;;;;;;;16.06;82.74;101478.47;5060833;28;20075;-72
2022/07/30 03:10:21;;;;;;;11.85;6.78;;;;;;;16.06;82.96;101483.72;5045315;28;20024;-72
2022/07/30 03:12:49;;;;;;;11.27;6.85;;;;;;;16.04;82.96;101485.69;5063821;28;20037;-72
2022/07/30 03:15:14;;;;;;;11.82;5.97;;;;;;;16.02;82.93;101481.63;5048858;28;20063;-72
2022/07/30 03:17:47;;;;;;;13.40;6.65;;;;;;;15.99;83.18;101485.38;5046862;28;20033;-72
2022/07/30 03:20:17;;;;;;;12.57;6.57;;;;;;;15.96;83.18;101483.94;5046358;28;20120;-72
2022/07/30 03:22:46;;;;;;;10.75;7.20;;;;;;;15.91;83.81;101480.22;5071438;28;20025;-72
2022/07/30 03:25:15;;;;;;;11.50;7.18;;;;;;;15.85;84.08;101481.75;5048356;28;20036;-72
2022/07/30 03:27:42;;;;;;;13.05;8.70;;;;;;;15.80;84.68;101491.09;5061078;28;20477;-73
2022/07/30 03:30:09;;;;;;;18.90;8.68;;;;;;;15.74;85.37;101490.78;5067263;28;20021;-73
2022/07/30 03:32:36;;;;;;;14.15;8.25;;;;;;;15.71;85.72;101483.28;5048412;28;20029;-72
2022/07/30 03:35:03;;;;;;;17.95;8.88;;;;;;;15.71;85.92;101485.09;5049599;28;20028;-73
2022/07/30 03:37:30;;;;;;;16.23;10.23;;;;;;;15.71;86.17;101488.50;5049192;28;20123;-72
2022/07/30 03:39:56;;;;;;;14.15;8.50;;;;;;;15.68;86.35;101481.00;5050412;28;20143;-72
2022/07/30 03:42:24;;;;;;;13.60;8.45;;;;;;;15.65;86.90;101493.59;5049840;28;20151;-73
2022/07/30 03:44:50;;;;;;;14.70;9.07;;;;;;;15.60;87.20;101496.75;5051334;28;20032;-72
2022/07/30 03:47:16;;;;;;;13.40;8.10;;;;;;;15.56;87.50;101498.09;5067430;28;20036;-72
2022/07/30 03:49:46;;;;;;;17.02;10.00;;;;;;;15.54;87.89;101500.84;5049458;28;20029;-72
2022/07/30 03:52:12;;;;;;;14.27;9.30;;;;;;;15.53;88.18;101499.22;5034460;28;20094;-72
2022/07/30 03:54:38;;;;;;;19.55;11.10;;;;;;;15.51;88.48;101501.19;5051371;28;20035;-72
2022/07/30 03:57:26;;;;;;;18.15;10.52;;;;;;;15.45;89.34;101504.50;5067663;28;20044;-72
2022/07/30 03:59:52;;;;;;;24.40;13.07;;;;;;;15.46;89.80;101508.72;5059510;28;20127;-72
2022/07/30 04:02:19;;;;;;;20.08;10.80;;;;;;;15.43;90.28;101511.69;5050561;28;20115;-72
2022/07/30 04:04:50;;;;;;;21.30;11.02;;;;;;;15.41;90.72;101520.66;5067899;28;20090;-72
2022/07/30 04:07:16;;;;;;;19.85;10.07;;;;;;;15.37;90.91;101525.44;5064149;28;20570;-72
2022/07/30 04:09:42;;;;;;;19.90;9.57;;;;;;;15.36;90.97;101526.41;5064941;28;20049;-72
2022/07/30 04:12:24;;;;;;;18.40;10.48;;;;;;;15.34;91.39;101525.78;5049398;28;20051;-72
2022/07/30 04:14:50;;;;;;;27.10;11.52;;;;;;;15.32;91.55;101525.13;5046775;28;20040;-72
2022/07/30 04:17:23;;;;;;;16.48;10.20;;;;;;;15.33;91.86;101518.91;5050306;28;20871;-72
2022/07/30 04:19:52;;;;;;;20.85;12.15;;;;;;;15.37;91.88;101526.25;5050224;28;20374;-72
2022/07/30 04:22:30;;;;;;;15.35;10.85;;;;;;;15.38;92.38;101533.09;5032554;28;20032;-73
2022/07/30 04:24:59;;;;;;;18.95;12.32;;;;;;;15.41;92.50;101537.19;5067379;28;20037;-72
2022/07/30 04:27:25;;;;;;;28.40;14.20;;;;;;;15.45;93.03;101540.28;5049223;28;20031;-72
2022/07/30 04:29:54;;;;;;;24.75;12.43;;;;;;;15.43;93.73;101542.25;5048341;28;20032;-72
2022/07/30 04:32:21;;;;;;;20.50;10.65;;;;;;;15.44;94.06;101541.25;5022303;28;20041;-72
2022/07/30 04:34:59;;;;;;;22.58;12.20;;;;;;;15.47;94.31;101548.75;5061102;28;20047;-72
2022/07/30 04:37:53;;;;;;;24.23;13.77;;;;;;;15.50;94.80;101545.78;5048708;28;20040;-73
2022/07/30 04:40:19;;;;;;;26.95;15.02;;;;;;;15.47;95.26;101549.56;5031940;28;21485;-72
2022/07/30 04:42:46;;;;;;;25.88;14.48;;;;;;;15.49;95.68;101547.59;5047500;28;20458;-72
2022/07/30 04:45:12;;;;;;;29.58;14.57;;;;;;;15.50;96.20;101551.84;5033831;28;20035;-73
2022/07/30 04:47:52;;;;;;;24.42;14.95;;;;;;;15.54;96.49;101555.75;5046893;28;20036;-72
2022/07/30 04:50:40;;;;;;;32.67;17.98;;;;;;;15.60;96.80;101558.66;5067386;28;20051;-72
2022/07/30 04:53:09;;;;;;;33.00;16.85;;;;;;;15.67;97.17;101557.81;5050639;28;20029;-72
2022/07/30 04:55:41;;;;;;;35.90;17.00;;;;;;;15.67;97.49;101564.81;5045970;28;20047;-72
2022/07/30 04:58:09;;;;;;;33.60;17.17;;;;;;;15.67;97.57;101564.81;5027470;28;20021;-72
2022/07/30 05:00:37;;;;;;;31.10;16.70;;;;;;;15.68;97.97;101569.88;5049067;28;20078;-72
2022/07/30 05:03:04;;;;;;;30.08;15.45;;;;;;;15.70;98.43;101572.34;5062343;28;20170;-72
2022/07/30 05:05:31;;;;;;;26.13;16.60;;;;;;;15.73;98.34;101577.22;5047922;28;20028;-73
2022/07/30 05:07:59;;;;;;;31.13;16.80;;;;;;;15.75;98.34;101586.56;5060300;28;20086;-72
2022/07/30 05:10:25;;;;;;;31.27;16.45;;;;;;;15.81;98.36;101581.63;5050580;28;20500;-73
2022/07/30 05:12:51;;;;;;;38.78;18.55;;;;;;;15.86;98.19;101589.75;5048291;28;20052;-73
2022/07/30 05:15:19;;;;;;;34.30;16.65;;;;;;;15.90;98.46;101585.84;5048928;28;20032;-72
2022/07/30 05:17:44;;;;;;;35.63;17.45;;;;;;;15.87;98.72;101586.16;5068684;28;20044;-73
2022/07/30 05:20:11;;;;;;;33.75;18.75;;;;;;;15.89;98.60;101592.03;5028315;28;20107;-73
2022/07/30 05:23:09;;;;;;;31.15;16.83;;;;;;;15.85;99.10;101596.00;5051003;28;20031;-72
2022/07/30 05:25:37;;;;;;;34.47;17.92;;;;;;;15.96;98.64;101593.78;5049967;28;20034;-72
2022/07/30 05:28:26;;;;;;;38.35;19.55;;;;;;;16.05;98.26;101597.19;5045074;28;20102;-73
2022/07/30 05:30:53;;;;;;;39.10;21.05;;;;;;;15.96;98.58;101596.41;5068076;28;20481;-74
2022/07/30 05:33:19;;;;;;;42.53;18.75;;;;;;;16.08;98.54;101594.22;5048844;28;20464;-73
2022/07/30 05:35:45;;;;;;;35.67;19.80;;;;;;;16.07;98.45;101597.84;5053309;28;20047;-73
2022/07/30 05:38:12;;;;;;;42.97;20.08;;;;;;;16.09;98.56;101598.47;5034403;28;20508;-73
2022/07/30 05:40:50;;;;;;;40.13;19.27;;;;;;;16.10;98.35;101601.88;5050396;28;21764;-73
2022/07/30 05:43:35;;;;;;;30.90;17.33;;;;;;;16.07;98.60;101600.44;5061549;28;20573;-73
2022/07/30 05:46:00;;;;;;;30.63;18.55;;;;;;;16.15;98.70;101605.63;5047533;28;20036;-72
2022/07/30 05:48:26;;;;;;;31.33;18.08;;;;;;;16.25;98.78;101607.19;5032716;28;20028;-73
2022/07/30 05:50:52;;;;;;;29.50;17.48;;;;;;;16.24;98.04;101624.69;5048892;28;20024;-72
2022/07/30 05:53:18;;;;;;;36.00;18.02;;;;;;;16.21;97.67;101619.81;5066476;28;20058;-73
2022/07/30 05:56:15;;;;;;;25.38;15.57;;;;;;;16.24;97.75;101616.84;5064134;28;20063;-73
2022/07/30 05:58:54;;;;;;;26.52;15.93;;;;;;;16.32;97.31;101619.41;5032802;28;20029;-73
2022/07/30 06:01:32;;;;;;;27.85;16.88;;;;;;;16.39;96.99;101614.31;5046332;28;20028;-73
2022/07/30 06:04:03;;;;;;;27.90;14.80;;;;;;;16.37;96.80;101620.69;5046168;28;20028;-74
2022/07/30 06:06:41;;;;;;;27.13;14.77;;;;;;;16.40;96.35;101615.13;5045562;28;20032;-73
2022/07/30 06:09:06;;;;;;;27.58;14.10;;;;;;;16.38;96.50;101612.66;5048736;28;20028;-74
2022/07/30 06:11:32;;;;;;;26.27;14.82;;;;;;;16.34;96.14;101614.00;5068477;28;20020;-73
2022/07/30 06:13:58;;;;;;;26.45;14.40;;;;;;;16.40;95.03;101609.88;5030816;28;20020;-75
2022/07/30 06:16:23;;;;;;;21.08;13.27;;;;;;;16.38;95.23;101611.84;5048650;28;20679;-74
2022/07/30 06:18:49;;;;;;;21.60;13.93;;;;;;;16.41;94.99;101617.56;5051908;28;20032;-73
2022/07/30 06:21:28;;;;;;;24.05;15.10;;;;;;;16.52;94.31;101611.91;5047087;28;20485;-73
2022/07/30 06:24:04;;;;;;;27.95;14.38;;;;;;;16.59;93.72;101613.81;5046857;28;20028;-74
2022/07/30 06:26:37;;;;;;;24.33;13.07;;;;;;;16.62;93.01;101621.34;5047074;28;20862;-73
2022/07/30 06:29:04;;;;;;;25.45;14.40;;;;;;;16.66;93.24;101617.38;5047969;28;20058;-73
2022/07/30 06:31:30;;;;;;;26.83;13.73;;;;;;;16.74;92.86;101623.38;5065753;28;20025;-73
2022/07/30 06:33:56;;;;;;;22.60;14.40;;;;;;;16.96;91.41;101618.28;5045531;28;20048;-73
2022/07/30 06:36:23;;;;;;;24.98;14.13;;;;;;;17.21;89.24;101620.66;5046454;28;20032;-73
2022/07/30 06:39:05;;;;;;;22.65;13.55;;;;;;;17.48;87.52;101624.47;5031440;28;20032;-75
2022/07/30 06:42:03;;;;;;;23.77;14.43;;;;;;;17.63;86.01;101625.28;5025232;28;20041;-75
2022/07/30 06:44:49;;;;;;;26.17;15.82;;;;;;;18.14;83.31;101624.47;5065148;28;20048;-75
2022/07/30 06:47:25;;;;;;;26.42;15.40;;;;;;;18.37;81.72;101624.28;5047449;28;20037;-74
2022/07/30 06:49:51;;;;;;;22.63;13.52;;;;;;;18.70;80.06;101618.50;5051990;28;20025;-73
2022/07/30 06:52:17;;;;;;;22.48;12.25;;;;;;;18.94;79.04;101619.94;5048097;28;20033;-74
2022/07/30 06:54:47;;;;;;;25.48;13.48;;;;;;;19.28;77.76;101622.78;5045358;28;20488;-74
2022/07/30 06:57:27;;;;;;;20.13;12.63;;;;;;;19.54;76.46;101620.28;5051423;28;20036;-74
2022/07/30 06:59:52;;;;;;;18.73;12.55;;;;;;;19.87;74.37;101626.69;5033166;28;20085;-74
2022/07/30 07:02:27;;;;;;;18.02;10.60;;;;;;;20.00;73.71;101629.38;5047425;28;20028;-73
2022/07/30 07:05:09;;;;;;;21.42;12.32;;;;;;;19.82;74.44;101624.69;5046121;28;20032;-75
2022/07/30 07:07:35;;;;;;;28.33;13.40;;;;;;;19.62;74.83;101629.81;5046171;28;20170;-73
2022/07/30 07:10:01;;;;;;;17.63;11.20;;;;;;;19.54;75.03;101625.53;5031704;28;20040;-73
2022/07/30 07:12:39;;;;;;;21.83;12.75;;;;;;;20.16;71.47;101628.22;5067565;28;20035;-74
2022/07/30 07:15:06;;;;;;;19.05;12.90;;;;;;;20.56;70.64;101633.53;5032552;28;20456;-74
2022/07/30 07:17:32;;;;;;;16.17;11.82;;;;;;;21.12;68.64;101622.56;5031991;28;20092;-75
2022/07/30 07:20:04;;;;;;;21.02;10.43;;;;;;;21.42;67.49;101631.78;5044006;28;20530;-73
2022/07/30 07:22:37;;;;;;;19.85;9.75;;;;;;;21.24;68.48;101635.09;5032988;28;20082;-73
2022/07/30 07:25:03;;;;;;;15.90;9.52;;;;;;;21.66;66.93;101638.25;5048356;28;20064;-73
2022/07/30 07:27:31;;;;;;;22.02;9.15;;;;;;;22.03;63.31;101639.28;5031340;28;20056;-75
2022/07/30 07:29:59;;;;;;;22.75;9.68;;;;;;;22.35;62.11;101634.03;5045042;28;20024;-74
2022/07/30 07:32:25;;;;;;;21.85;10.30;;;;;;;22.84;60.32;101623.66;5047203;28;20451;-76
2022/07/30 07:34:50;;;;;;;16.60;9.95;;;;;;;22.91;59.43;101625.22;5047470;28;20032;-73
2022/07/30 07:37:16;;;;;;;15.68;8.50;;;;;;;23.48;58.71;101632.97;5048251;28;20089;-73
2022/07/30 07:39:42;;;;;;;22.75;9.00;;;;;;;23.89;57.56;101628.81;5048598;28;20028;-76
2022/07/30 07:42:08;;;;;;;9.90;6.45;;;;;;;24.07;53.98;101635.91;5047518;28;20025;-74
2022/07/30 07:44:36;;;;;;;14.50;6.65;;;;;;;24.14;53.52;101632.34;5049744;28;20036;-76
2022/07/30 07:47:02;;;;;;;10.50;5.30;;;;;;;24.58;53.60;101624.97;5032146;28;20051;-74
2022/07/30 07:49:32;;;;;;;16.05;7.32;;;;;;;25.04;52.05;101632.09;5035592;28;20065;-76
2022/07/30 07:51:58;;;;;;;10.43;5.95;;;;;;;24.91;52.97;101631.56;5048386;28;20044;-74
2022/07/30 07:54:24;;;;;;;15.48;6.78;;;;;;;25.33;51.82;101628.75;5046742;28;20043;-75
2022/07/30 07:56:54;;;;;;;11.73;6.07;;;;;;;25.12;50.95;101624.81;5047545;28;20024;-74
2022/07/30 07:59:25;;;;;;;;;;;;;;;25.39;49.18;101625.97;5041360;28;20028;-74
2022/07/30 08:01:51;;;;;;;13.43;7.38;;;;;;;25.22;50.73;101625.03;5067428;28;20861;-75
2022/07/30 08:04:35;;;;;;;13.98;7.53;;;;;;;25.47;50.48;101626.59;5071795;28;20123;-74
2022/07/30 08:07:06;;;;;;;14.80;6.85;;;;;;;25.56;51.14;101625.19;5073773;28;20178;-76
2022/07/30 08:09:50;;;;;;;16.55;6.93;;;;;;;25.47;49.97;101623.94;5052000;28;20115;-73
2022/07/30 08:12:26;;;;;;;7.95;5.22;;;;;;;25.66;50.33;101620.09;5043391;28;20040;-73
2022/07/30 08:15:11;;;;;;;12.25;5.78;;;;;;;25.79;48.56;101622.47;5049580;28;20127;-74
2022/07/30 08:18:12;;;;;;;12.32;5.30;;;;;;;25.86;48.68;101616.19;5045526;28;20044;-76
2022/07/30 08:20:49;;;;;;;10.38;5.65;;;;;;;26.15;47.22;101620.44;5048174;28;20078;-74
2022/07/30 08:23:20;;;;;;;12.40;5.50;;;;;;;26.29;47.05;101617.47;5045455;28;20706;-74
2022/07/30 08:25:47;;;;;;;12.15;4.90;;;;;;;26.23;47.09;101620.03;5065847;28;20029;-76
2022/07/30 08:28:12;;;;;;;9.93;4.97;;;;;;;26.19;46.74;101618.91;5057017;28;20086;-74
2022/07/30 08:30:38;;;;;;;10.32;4.25;;;;;;;26.58;46.52;101620.84;5051007;28;20028;-74
2022/07/30 08:33:04;;;;;;;14.50;4.82;;;;;;;26.71;45.44;101617.88;5052118;28;20141;-75
2022/07/30 08:35:29;;;;;;;7.40;4.55;;;;;;;26.61;45.40;101623.03;5040941;28;20032;-76
2022/07/30 08:37:54;;;;;;;7.72;3.42;;;;;;;26.79;44.23;101619.31;5043073;28;20431;-76
2022/07/30 08:40:25;;;;;;;8.40;3.83;;;;;;;26.60;43.85;101624.09;5052329;28;20024;-76
2022/07/30 08:42:59;;;;;;;12.98;4.13;;;;;;;26.37;44.21;101630.34;5046672;28;20044;-75
2022/07/30 08:45:25;;;;;;;11.60;4.35;;;;;;;26.63;44.58;101622.81;5050486;28;20680;-76
2022/07/30 08:47:54;;;;;;;9.65;3.95;;;;;;;26.69;44.03;101627.97;5052534;28;20043;-77
2022/07/30 08:50:26;;;;;;;;;;;;;;;26.84;44.18;101630.00;5052802;28;20036;-76
2022/07/30 08:53:27;;;;;;;11.88;4.57;;;;;;;26.77;42.97;101630.19;5014762;28;19956;-75
2022/07/30 08:55:53;;;;;;;11.27;4.28;;;;;;;27.08;44.22;101627.94;5057358;28;20045;-73
2022/07/30 08:58:33;;;;;;;10.48;3.42;;;;;;;27.23;41.31;101626.53;5044542;28;20040;-75
2022/07/30 09:00:59;;;;;;;9.82;2.70;;;;;;;27.54;41.19;101638.38;5056423;28;20035;-75
2022/07/30 09:03:27;;;;;;;9.43;4.03;;;;;;;27.50;41.46;101629.25;5069686;28;20036;-75
2022/07/30 09:05:56;;;;;;;10.15;4.80;;;;;;;27.11;42.05;101629.31;5051647;28;20040;-74
2022/07/30 09:08:21;;;;;;;11.00;3.70;;;;;;;27.04;41.71;101634.00;5052018;28;20028;-75
2022/07/30 09:10:47;;;;;;;7.40;2.75;;;;;;;27.44;41.42;101632.91;5050362;28;20040;-76
2022/07/30 09:13:26;;;;;;;8.73;3.28;;;;;;;27.75;39.86;101634.06;5048119;28;20028;-74
2022/07/30 09:15:54;;;;;;;8.93;3.45;;;;;;;28.01;40.46;101634.31;5051117;28;20028;-74
2022/07/30 09:18:33;;;;;;;10.70;3.95;;;;;;;28.09;41.40;101633.88;5033939;28;20064;-75
2022/07/30 09:21:01;;;;;;;8.15;3.03;;;;;;;28.01;40.31;101636.97;5075356;28;20085;-76
2022/07/30 09:23:27;;;;;;;7.03;3.92;;;;;;;27.77;40.45;101639.94;5050735;28;21529;-76
2022/07/30 09:26:13;;;;;;;10.50;4.93;;;;;;;27.52;40.82;101629.81;5026206;28;20059;-78
2022/07/30 09:29:17;;;;;;;13.00;3.60;;;;;;;27.25;42.11;101627.91;5074324;28;20067;-75
2022/07/30 09:32:03;;;;;;;6.95;3.15;;;;;;;27.60;41.89;101629.38;5059187;28;20051;-76
2022/07/30 09:34:47;;;;;;;9.45;4.32;;;;;;;27.37;40.62;101623.28;5063918;28;20117;-75
2022/07/30 09:37:32;;;;;;;11.35;4.43;;;;;;;27.07;41.32;101629.00;5072821;28;20058;-75
2022/07/30 09:40:19;;;;;;;5.38;3.17;;;;;;;27.59;41.85;101635.75;5032151;28;20157;-77
2022/07/30 09:43:07;;;;;;;7.07;3.60;;;;;;;27.90;41.44;101634.22;5033339;28;21033;-75
2022/07/30 09:45:34;;;;;;;5.60;3.55;;;;;;;27.68;42.48;101636.13;5049059;28;20135;-76
2022/07/30 09:48:00;;;;;;;12.23;4.65;;;;;;;27.72;41.80;101634.56;5065617;28;20132;-75
2022/07/30 09:50:27;;;;;;;9.70;3.58;;;;;;;27.89;40.66;101626.50;5066759;28;20040;-76
2022/07/30 09:52:54;;;;;;;6.90;3.08;;;;;;;27.91;39.53;101619.84;5065673;28;20402;-76
2022/07/30 09:55:31;;;;;;;6.13;3.10;;;;;;;28.01;40.00;101624.47;5064548;28;20076;-76
2022/07/30 09:58:03;;;;;;;5.95;2.85;;;;;;;28.00;40.10;101622.06;5050602;28;20146;-77
2022/07/30 10:00:31;;;;;;;7.43;3.08;;;;;;;27.87;39.23;101625.91;5064660;28;20024;-78
2022/07/30 10:03:24;;;;;;;8.50;2.75;;;;;;;27.77;38.29;101626.63;5016506;28;20841;-75
2022/07/30 10:06:09;;;;;;;7.72;2.83;;;;;;;27.74;39.16;101625.25;5066000;28;20050;-76
2022/07/30 10:08:40;;;;;;;4.43;2.53;;;;;;;28.12;38.60;101628.00;5050267;28;20031;-78
2022/07/30 10:11:10;;;;;;;9.70;2.70;;;;;;;28.09;38.08;101632.00;5049404;28;20081;-78
2022/07/30 10:13:37;;;;;;;7.03;2.70;;;;;;;28.07;38.12;101623.47;5049130;28;20115;-77
2022/07/30 10:16:04;;;;;;;7.53;2.72;;;;;;;28.07;37.53;101612.81;5048514;28;20124;-77
2022/07/30 10:18:30;;;;;;;5.90;3.03;;;;;;;27.84;38.49;101619.25;5042796;28;20051;-77
2022/07/30 10:21:19;;;;;;;6.72;2.83;;;;;;;28.00;38.43;101624.72;5032604;28;20032;-76
2022/07/30 10:24:08;;;;;;;6.00;2.47;;;;;;;27.87;38.48;101633.91;5044754;28;20036;-77
2022/07/30 10:26:50;;;;;;;8.40;2.78;;;;;;;28.20;38.55;101627.56;5049853;28;20685;-77
2022/07/30 10:29:37;;;;;;;6.50;2.83;;;;;;;28.05;37.44;101627.41;5068030;28;20085;-77
2022/07/30 10:32:03;;;;;;;9.38;2.97;;;;;;;27.98;37.22;101630.31;5071251;28;20041;-76
2022/07/30 10:34:31;;;;;;;5.78;3.05;;;;;;;27.86;37.98;101622.44;5048524;28;20029;-77
2022/07/30 10:37:00;;;;;;;9.45;2.40;;;;;;;28.02;38.74;101627.94;5049071;28;20032;-76
2022/07/30 10:39:44;;;;;;;10.60;3.40;;;;;;;28.04;38.47;101623.16;5027615;28;20032;-76
2022/07/30 10:42:34;;;;;;;9.27;3.78;;;;;;;27.82;38.19;101626.69;5025431;28;20086;-76
2022/07/30 10:45:15;;;;;;;5.35;2.40;;;;;;;27.68;38.02;101614.81;5068291;28;20047;-77
2022/07/30 10:47:41;;;;;;;4.50;1.70;;;;;;;27.88;36.14;101616.88;5065565;28;20029;-78
2022/07/30 10:50:18;;;;;;;6.03;2.10;;;;;;;27.61;34.46;101616.84;5044938;28;20028;-77
2022/07/30 10:52:50;;;;;;;3.92;1.40;;;;;;;27.55;35.11;101614.13;5068343;28;20040;-76
2022/07/30 10:55:26;;;;;;;2.95;1.60;;;;;;;27.88;33.44;101609.69;5066120;28;20043;-75
2022/07/30 10:58:08;;;;;;;4.97;2.20;;;;;;;27.62;34.72;101602.50;5048333;28;20029;-75
2022/07/30 11:00:43;;;;;;;17.65;10.88;;;;;;;27.78;35.00;101609.56;5062296;28;20123;-77
2022/07/30 11:03:23;;;;;;;5.75;2.47;;;;;;;27.93;36.03;101608.94;5050463;28;20028;-77
2022/07/30 11:06:14;;;;;;;5.00;2.20;;;;;;;27.64;35.33;101609.19;5045880;28;20036;-76
2022/07/30 11:08:42;;;;;;;6.70;1.95;;;;;;;27.60;36.19;101596.63;5057359;28;20122;-76
2022/07/30 11:11:19;;;;;;;4.30;1.70;;;;;;;27.87;36.37;101609.94;5050380;28;20033;-80
2022/07/30 11:13:52;;;;;;;7.03;2.90;;;;;;;27.88;36.70;101616.88;5046251;28;20033;-78
2022/07/30 11:16:19;;;;;;;4.18;1.92;;;;;;;27.72;37.00;101619.38;5033725;28;20087;-78
2022/07/30 11:19:12;;;;;;;5.70;1.92;;;;;;;28.21;37.67;101612.38;5063807;28;20501;-76
2022/07/30 11:21:38;;;;;;;3.78;1.60;;;;;;;28.14;37.10;101610.72;5047891;28;20029;-77
2022/07/30 11:24:04;;;;;;;4.20;1.80;;;;;;;28.19;37.04;101604.63;5047542;28;20048;-77
2022/07/30 11:26:40;;;;;;;6.97;1.90;;;;;;;28.20;36.70;101605.41;5048626;28;20048;-76
2022/07/30 11:29:07;;;;;;;5.35;1.88;;;;;;;28.11;37.12;101597.91;5049104;28;20048;-78
2022/07/30 11:31:37;;;;;;;7.38;1.88;;;;;;;28.18;37.90;101602.22;5041859;28;20561;-77
2022/07/30 11:34:18;;;;;;;6.35;2.25;;;;;;;28.28;37.52;101597.75;5069116;28;20084;-75
2022/07/30 11:37:08;;;;;;;5.53;1.98;;;;;;;28.27;36.30;101592.69;5029022;28;20033;-78
2022/07/30 11:39:52;;;;;;;4.13;1.83;;;;;;;28.40;35.86;101596.78;5052871;28;20124;-77